createdAt,value
2019-04-29T00:01:55.861Z,19.57
2019-04-29T00:04:25.528Z,17.00
2019-04-29T00:06:54.904Z,20.50
2019-04-29T00:09:24.512Z,19.40
2019-04-29T00:11:53.890Z,16.80
2019-04-29T00:14:23.188Z,17.17
2019-04-29T00:16:56.814Z,18.67
2019-04-29T00:19:43.856Z,14.30
2019-04-29T00:22:13.342Z,17.63
2019-04-29T00:24:42.780Z,17.00
2019-04-29T00:27:12.432Z,14.57
2019-04-29T00:29:41.788Z,15.43
2019-04-29T00:32:11.420Z,13.03
2019-04-29T00:34:40.790Z,12.80
2019-04-29T00:37:14.986Z,16.33
2019-04-29T00:40:00.842Z,14.97
2019-04-29T00:42:48.271Z,13.70
2019-04-29T00:45:17.701Z,9.93
2019-04-29T00:47:47.092Z,15.43
2019-04-29T00:50:16.572Z,15.60
2019-04-29T00:52:45.947Z,15.97
2019-04-29T00:55:22.695Z,15.07
2019-04-29T00:57:52.107Z,15.10
2019-04-29T01:00:23.522Z,18.13
2019-04-29T01:02:52.901Z,19.13
2019-04-29T01:05:22.361Z,18.83
2019-04-29T01:07:52.134Z,15.47
2019-04-29T01:10:21.702Z,15.20
2019-04-29T01:12:51.112Z,15.50
2019-04-29T01:15:20.488Z,18.33
2019-04-29T01:17:49.924Z,20.93
2019-04-29T01:20:19.531Z,23.87
2019-04-29T01:22:48.872Z,21.00
2019-04-29T01:25:18.253Z,24.00
2019-04-29T01:28:05.879Z,18.13
2019-04-29T01:30:41.156Z,17.00
2019-04-29T01:33:10.563Z,18.13
2019-04-29T01:35:40.003Z,17.20
2019-04-29T01:38:09.299Z,18.17
2019-04-29T01:40:42.995Z,17.53
2019-04-29T01:43:12.360Z,16.43
2019-04-29T01:45:41.659Z,18.23
2019-04-29T01:48:10.981Z,16.83
2019-04-29T01:50:40.377Z,19.73
2019-04-29T01:53:09.751Z,20.23
2019-04-29T01:55:39.144Z,20.23
2019-04-29T01:58:08.432Z,21.17
2019-04-29T02:00:37.759Z,20.97
2019-04-29T02:03:07.262Z,21.60
2019-04-29T02:05:36.566Z,18.73
2019-04-29T02:08:05.951Z,17.30
2019-04-29T02:10:35.436Z,16.73
2019-04-29T02:13:04.906Z,19.73
2019-04-29T02:15:34.309Z,19.03
2019-04-29T02:18:03.703Z,17.83
2019-04-29T02:20:33.068Z,20.20
2019-04-29T02:23:03.970Z,18.47
2019-04-29T02:25:35.000Z,19.17
2019-04-29T02:28:04.369Z,17.33
2019-04-29T02:30:46.021Z,16.43
2019-04-29T02:33:15.398Z,17.43
2019-04-29T02:35:44.954Z,18.73
2019-04-29T02:38:18.905Z,18.50
2019-04-29T02:40:55.770Z,18.77
2019-04-29T02:43:26.890Z,17.80
2019-04-29T02:45:56.255Z,20.13
2019-04-29T02:48:30.060Z,24.07
2019-04-29T02:50:56.726Z,31.30
2019-04-29T02:53:26.107Z,31.33
2019-04-29T02:55:57.124Z,31.57
2019-04-29T02:58:34.710Z,30.20
2019-04-29T03:01:21.876Z,29.87
2019-04-29T03:04:05.077Z,25.57
2019-04-29T03:06:34.576Z,28.23
2019-04-29T03:09:05.598Z,29.67
2019-04-29T03:11:34.999Z,27.63
2019-04-29T03:14:04.376Z,28.60
2019-04-29T03:16:33.846Z,26.27
2019-04-29T03:19:07.556Z,26.07
2019-04-29T03:21:38.753Z,24.73
2019-04-29T03:24:08.112Z,20.60
2019-04-29T03:26:37.613Z,21.93
2019-04-29T03:29:08.618Z,20.30
2019-04-29T03:31:39.448Z,20.17
2019-04-29T03:34:09.215Z,18.83
2019-04-29T03:36:38.594Z,25.17
2019-04-29T03:39:08.167Z,21.80
2019-04-29T03:41:37.601Z,24.30
2019-04-29T03:44:06.971Z,17.73
2019-04-29T03:46:36.345Z,21.07
2019-04-29T03:49:05.749Z,21.43
2019-04-29T03:51:35.510Z,20.20
2019-04-29T03:54:04.885Z,21.37
2019-04-29T03:56:34.218Z,18.27
2019-04-29T03:59:03.784Z,14.37
2019-04-29T04:01:34.830Z,18.40
2019-04-29T04:04:08.473Z,17.60
2019-04-29T04:06:42.357Z,19.37
2019-04-29T04:09:15.986Z,20.97
2019-04-29T04:11:45.339Z,19.20
2019-04-29T04:14:14.766Z,17.57
2019-04-29T04:17:02.067Z,16.67
2019-04-29T04:19:33.666Z,17.07
2019-04-29T04:22:03.028Z,15.17
2019-04-29T04:24:32.696Z,16.07
2019-04-29T04:27:02.105Z,14.23
2019-04-29T04:29:31.487Z,15.67
2019-04-29T04:32:00.846Z,14.50
2019-04-29T04:34:30.191Z,14.63
2019-04-29T04:37:00.300Z,14.93
2019-04-29T04:39:31.815Z,20.87
2019-04-29T04:42:01.169Z,17.13
2019-04-29T04:44:49.063Z,15.23
2019-04-29T04:47:19.612Z,15.20
2019-04-29T04:49:49.095Z,14.37
2019-04-29T04:52:18.543Z,14.73
2019-04-29T04:54:49.536Z,15.53
2019-04-29T04:57:18.812Z,14.47
2019-04-29T04:59:48.051Z,15.77
2019-04-29T05:02:17.450Z,20.37
2019-04-29T05:04:46.776Z,20.40
2019-04-29T05:07:16.070Z,21.13
2019-04-29T05:09:45.542Z,25.63
2019-04-29T05:12:14.895Z,20.63
2019-04-29T05:14:44.267Z,19.73
2019-04-29T05:17:13.677Z,14.77
2019-04-29T05:19:42.918Z,15.17
2019-04-29T05:22:12.249Z,15.13
2019-04-29T05:24:41.581Z,15.00
2019-04-29T05:27:10.955Z,16.00
2019-04-29T05:29:40.250Z,14.50
2019-04-29T05:32:09.590Z,13.37
2019-04-29T05:34:41.920Z,14.10
2019-04-29T05:37:25.249Z,12.53
2019-04-29T05:39:54.621Z,13.90
2019-04-29T05:42:23.849Z,14.13
2019-04-29T05:44:54.901Z,13.53
2019-04-29T05:47:25.895Z,13.53
2019-04-29T05:50:16.724Z,14.27
2019-04-29T05:52:59.818Z,12.17
2019-04-29T05:55:29.321Z,12.70
2019-04-29T05:58:13.618Z,14.57
2019-04-29T06:00:45.465Z,14.10
2019-04-29T06:03:14.788Z,14.27
2019-04-29T06:05:44.165Z,11.57
2019-04-29T06:08:13.582Z,14.70
2019-04-29T06:10:42.943Z,16.17
2019-04-29T06:13:12.387Z,13.13
2019-04-29T06:15:41.806Z,15.87
2019-04-29T06:18:11.100Z,15.80
2019-04-29T06:20:40.485Z,14.17
2019-04-29T06:23:09.992Z,14.10
2019-04-29T06:25:39.348Z,14.13
2019-04-29T06:28:08.728Z,16.47
2019-04-29T06:30:40.602Z,13.47
2019-04-29T06:33:09.587Z,15.47
2019-04-29T06:35:39.178Z,13.73
2019-04-29T06:38:08.767Z,17.17
2019-04-29T06:40:38.218Z,18.63
2019-04-29T06:43:07.511Z,22.27
2019-04-29T06:45:36.919Z,22.23
2019-04-29T06:48:06.219Z,21.60
2019-04-29T06:50:35.522Z,18.40
2019-04-29T06:53:05.741Z,21.43
2019-04-29T06:55:35.044Z,19.00
2019-04-29T06:58:04.417Z,23.37
2019-04-29T07:00:33.838Z,20.07
2019-04-29T07:03:03.205Z,18.77
2019-04-29T07:05:32.447Z,19.93
2019-04-29T07:08:01.841Z,17.73
2019-04-29T07:10:31.098Z,18.80
2019-04-29T07:13:00.547Z,19.37
2019-04-29T07:15:29.960Z,19.53
2019-04-29T07:17:59.190Z,18.57
2019-04-29T07:20:32.480Z,19.03
2019-04-29T07:23:00.688Z,18.33
2019-04-29T07:25:32.604Z,18.20
2019-04-29T07:28:01.979Z,18.03
2019-04-29T07:30:31.391Z,17.17
2019-04-29T07:33:00.674Z,16.87
2019-04-29T07:35:30.075Z,16.43
2019-04-29T07:37:59.420Z,17.17
2019-04-29T07:40:28.793Z,16.73
2019-04-29T07:42:58.217Z,14.80
2019-04-29T07:45:44.352Z,15.43
2019-04-29T07:48:08.985Z,15.77
2019-04-29T07:50:38.281Z,16.07
2019-04-29T07:53:07.896Z,17.03
2019-04-29T07:55:37.290Z,14.30
2019-04-29T07:58:06.631Z,15.97
2019-04-29T08:00:36.512Z,14.27
2019-04-29T08:03:08.024Z,12.77
2019-04-29T08:05:37.512Z,15.17
2019-04-29T08:08:25.119Z,15.93
2019-04-29T08:10:56.702Z,14.90
2019-04-29T08:13:27.073Z,12.57
2019-04-29T08:15:56.418Z,15.40
2019-04-29T08:18:25.792Z,15.77
2019-04-29T08:20:55.154Z,15.10
2019-04-29T08:23:24.626Z,15.87
2019-04-29T08:25:57.679Z,16.13
2019-04-29T08:28:24.994Z,15.27
2019-04-29T08:30:54.466Z,16.20
2019-04-29T08:33:23.773Z,15.37
2019-04-29T08:35:53.173Z,18.53
2019-04-29T08:38:22.505Z,18.13
2019-04-29T08:40:51.900Z,16.67
2019-04-29T08:43:31.827Z,14.33
2019-04-29T08:46:12.042Z,16.23
2019-04-29T08:48:41.430Z,19.67
2019-04-29T08:51:10.789Z,17.13
2019-04-29T08:53:40.092Z,14.80
2019-04-29T08:56:10.171Z,15.27
2019-04-29T08:58:44.402Z,16.30
2019-04-29T09:01:11.733Z,14.10
2019-04-29T09:03:41.295Z,20.13
2019-04-29T09:06:10.897Z,16.30
2019-04-29T09:08:54.033Z,17.70
2019-04-29T09:11:13.025Z,16.20
2019-04-29T09:13:42.471Z,16.80
2019-04-29T09:16:11.846Z,15.10
2019-04-29T09:18:41.278Z,17.73
2019-04-29T09:21:10.644Z,15.70
2019-04-29T09:23:40.023Z,16.13
2019-04-29T09:26:16.874Z,13.07
2019-04-29T09:28:49.410Z,13.53
2019-04-29T09:31:18.100Z,14.00
2019-04-29T09:33:49.104Z,15.00
2019-04-29T09:36:18.667Z,13.10
2019-04-29T09:38:48.054Z,13.33
2019-04-29T09:41:26.040Z,16.60
2019-04-29T09:44:05.779Z,14.63
2019-04-29T09:46:36.854Z,12.00
2019-04-29T09:49:06.233Z,12.90
2019-04-29T09:51:35.603Z,13.73
2019-04-29T09:54:05.003Z,13.00
2019-04-29T09:56:34.947Z,11.97
2019-04-29T09:59:24.547Z,12.23
2019-04-29T10:02:04.652Z,11.30
2019-04-29T10:04:56.469Z,12.43
2019-04-29T10:07:18.707Z,13.27
2019-04-29T10:09:57.062Z,15.63
2019-04-29T10:12:19.436Z,14.47
2019-04-29T10:14:48.841Z,15.27
2019-04-29T10:17:19.939Z,14.10
2019-04-29T10:20:08.131Z,15.80
2019-04-29T10:22:37.860Z,16.03
2019-04-29T10:25:08.007Z,14.97
2019-04-29T10:27:37.482Z,14.07
2019-04-29T10:30:10.078Z,14.33
2019-04-29T10:32:42.411Z,17.93
2019-04-29T10:35:10.870Z,15.33
2019-04-29T10:37:40.397Z,14.13
2019-04-29T10:40:28.160Z,15.07
2019-04-29T10:43:17.131Z,11.00
2019-04-29T10:45:48.443Z,12.27
2019-04-29T10:48:34.890Z,12.07
2019-04-29T10:51:05.798Z,12.67
2019-04-29T10:53:35.371Z,12.67
2019-04-29T10:56:06.994Z,11.70
2019-04-29T10:58:36.629Z,12.30
2019-04-29T11:01:29.182Z,12.33
2019-04-29T11:04:00.952Z,10.70
2019-04-29T11:06:31.467Z,12.47
2019-04-29T11:09:14.392Z,9.57
2019-04-29T11:11:45.590Z,16.10
2019-04-29T11:14:14.966Z,11.10
2019-04-29T11:16:46.966Z,10.13
2019-04-29T11:19:15.807Z,13.47
2019-04-29T11:21:45.642Z,12.13
2019-04-29T11:24:19.411Z,12.27
2019-04-29T11:26:53.181Z,14.37
2019-04-29T11:29:27.400Z,12.33
2019-04-29T11:31:55.917Z,12.50
2019-04-29T11:34:27.688Z,10.97
2019-04-29T11:36:57.133Z,12.83
2019-04-29T11:39:26.908Z,11.20
2019-04-29T11:41:59.798Z,11.10
2019-04-29T11:44:28.049Z,13.13
2019-04-29T11:46:57.654Z,10.50
2019-04-29T11:49:28.652Z,12.10
2019-04-29T11:52:09.176Z,10.70
2019-04-29T11:54:29.398Z,11.50
2019-04-29T11:56:58.934Z,12.90
2019-04-29T11:59:30.154Z,11.47
2019-04-29T12:02:01.372Z,11.67
2019-04-29T12:04:35.188Z,11.73
2019-04-29T12:07:05.028Z,10.77
2019-04-29T12:09:35.225Z,11.77
2019-04-29T12:12:07.920Z,14.07
2019-04-29T12:14:44.903Z,11.40
2019-04-29T12:17:24.622Z,12.33
2019-04-29T12:19:55.587Z,13.83
2019-04-29T12:22:30.396Z,12.53
2019-04-29T12:24:56.099Z,14.50
2019-04-29T12:27:25.569Z,12.87
2019-04-29T12:29:59.166Z,12.50
2019-04-29T12:32:27.800Z,12.60
2019-04-29T12:35:16.621Z,13.27
2019-04-29T12:38:00.788Z,14.93
2019-04-29T12:40:45.552Z,15.00
2019-04-29T12:43:28.169Z,17.40
2019-04-29T12:46:01.996Z,16.07
2019-04-29T12:48:31.451Z,17.67
2019-04-29T12:51:01.104Z,16.10
2019-04-29T12:53:30.523Z,15.23
2019-04-29T12:55:59.892Z,14.80
2019-04-29T12:58:29.265Z,13.00
2019-04-29T13:01:12.157Z,15.37
2019-04-29T13:03:48.969Z,13.10
2019-04-29T13:06:24.017Z,11.57
2019-04-29T13:09:01.500Z,13.60
2019-04-29T13:11:37.630Z,14.10
2019-04-29T13:14:01.930Z,11.03
2019-04-29T13:16:45.641Z,11.60
2019-04-29T13:19:29.841Z,13.60
2019-04-29T13:21:56.458Z,12.43
2019-04-29T13:24:26.231Z,11.87
2019-04-29T13:26:55.926Z,13.90
2019-04-29T13:29:27.753Z,12.47
2019-04-29T13:31:56.371Z,11.80
2019-04-29T13:34:33.042Z,14.97
2019-04-29T13:37:07.278Z,14.40
2019-04-29T13:39:39.018Z,14.20
2019-04-29T13:42:03.002Z,13.53
2019-04-29T13:44:32.176Z,12.30
2019-04-29T13:47:28.364Z,16.40
2019-04-29T13:49:54.105Z,17.33
2019-04-29T13:52:23.468Z,17.67
2019-04-29T13:54:52.790Z,19.07
2019-04-29T13:57:22.128Z,17.67
2019-04-29T14:00:02.589Z,21.03
2019-04-29T14:02:36.746Z,21.37
2019-04-29T14:05:08.737Z,21.30
2019-04-29T14:07:39.625Z,19.00
2019-04-29T14:10:14.808Z,19.80
2019-04-29T14:12:48.329Z,16.83
2019-04-29T14:15:14.384Z,18.00
2019-04-29T14:17:43.709Z,20.00
2019-04-29T14:20:15.788Z,15.47
2019-04-29T14:22:44.158Z,16.50
2019-04-29T14:25:13.987Z,20.40
2019-04-29T14:27:43.368Z,21.20
2019-04-29T14:30:16.067Z,19.97
2019-04-29T14:32:49.533Z,19.30
2019-04-29T14:35:27.678Z,21.50
2019-04-29T14:38:04.321Z,21.53
2019-04-29T14:40:28.230Z,18.60
2019-04-29T14:43:27.056Z,19.63
2019-04-29T14:45:47.983Z,19.57
2019-04-29T14:48:21.370Z,20.33
2019-04-29T14:50:54.042Z,21.20
2019-04-29T14:53:24.132Z,21.33
2019-04-29T14:55:53.364Z,22.10
2019-04-29T14:58:22.733Z,21.00
2019-04-29T15:00:53.838Z,18.53
2019-04-29T15:03:30.668Z,26.90
2019-04-29T15:06:00.067Z,24.77
2019-04-29T15:08:32.067Z,24.77
2019-04-29T15:11:04.213Z,27.60
2019-04-29T15:13:32.571Z,26.00
2019-04-29T15:16:05.179Z,27.00
2019-04-29T15:18:49.598Z,26.73
2019-04-29T15:21:31.099Z,26.57
2019-04-29T15:23:49.004Z,26.10
2019-04-29T15:26:20.441Z,29.27
2019-04-29T15:28:52.611Z,25.97
2019-04-29T15:31:23.451Z,18.83
2019-04-29T15:33:53.176Z,26.10
2019-04-29T15:36:22.540Z,27.50
2019-04-29T15:39:07.698Z,32.30
2019-04-29T15:41:29.727Z,27.00
2019-04-29T15:44:06.469Z,36.23
2019-04-29T15:46:25.266Z,38.37
2019-04-29T15:48:54.658Z,40.63
2019-04-29T15:51:24.014Z,39.00
2019-04-29T15:53:54.492Z,41.83
2019-04-29T15:56:28.731Z,37.83
2019-04-29T15:58:59.610Z,34.43
2019-04-29T16:01:27.930Z,36.13
2019-04-29T16:03:59.248Z,38.30
2019-04-29T16:06:33.838Z,33.13
2019-04-29T16:09:11.904Z,30.67
2019-04-29T16:11:58.944Z,32.10
2019-04-29T16:14:28.391Z,28.40
2019-04-29T16:16:57.700Z,24.67
2019-04-29T16:19:27.092Z,33.73
2019-04-29T16:21:56.515Z,37.20
2019-04-29T16:24:27.299Z,34.40
2019-04-29T16:27:01.128Z,35.87
2019-04-29T16:29:28.074Z,35.07
2019-04-29T16:32:02.359Z,42.23
2019-04-29T16:34:28.634Z,50.20
2019-04-29T16:36:58.910Z,44.20
2019-04-29T16:39:28.580Z,40.47
2019-04-29T16:42:15.845Z,44.03
2019-04-29T16:44:45.511Z,48.07
2019-04-29T16:47:15.681Z,52.33
2019-04-29T16:49:45.328Z,49.90
2019-04-29T16:52:14.712Z,35.83
2019-04-29T16:54:44.185Z,46.70
2019-04-29T16:57:13.575Z,51.37
2019-04-29T16:59:43.400Z,48.60
2019-04-29T17:02:19.135Z,50.27
2019-04-29T17:04:44.229Z,51.47
2019-04-29T17:07:15.158Z,47.53
2019-04-29T17:09:52.247Z,49.20
2019-04-29T17:12:21.994Z,43.27
2019-04-29T17:15:03.757Z,50.80
2019-04-29T17:17:29.195Z,57.47
2019-04-29T17:19:55.163Z,52.53
2019-04-29T17:22:27.184Z,51.83
2019-04-29T17:24:55.992Z,49.80
2019-04-29T17:27:34.933Z,67.93
2019-04-29T17:30:11.244Z,57.63
2019-04-29T17:32:51.972Z,52.33
2019-04-29T17:35:23.006Z,53.93
2019-04-29T17:37:52.582Z,58.57
2019-04-29T17:40:23.641Z,72.00
2019-04-29T17:43:00.762Z,54.40
2019-04-29T17:45:32.723Z,52.57
2019-04-29T17:48:03.706Z,57.20
2019-04-29T17:50:49.531Z,62.77
2019-04-29T17:53:24.972Z,48.53
2019-04-29T17:56:02.254Z,60.17
2019-04-29T17:58:33.260Z,50.10
2019-04-29T18:01:12.959Z,49.93
2019-04-29T18:03:46.788Z,49.17
2019-04-29T18:06:24.147Z,53.47
2019-04-29T18:09:05.600Z,44.87
2019-04-29T18:11:48.949Z,45.90
2019-04-29T18:14:07.080Z,48.70
2019-04-29T18:16:39.509Z,50.80
2019-04-29T18:19:10.849Z,56.63
2019-04-29T18:21:47.601Z,42.93
2019-04-29T18:24:21.201Z,43.27
2019-04-29T18:26:52.889Z,38.30
2019-04-29T18:29:22.482Z,37.20
2019-04-29T18:31:51.986Z,36.23
2019-04-29T18:34:21.358Z,37.30
2019-04-29T18:36:54.561Z,36.83
2019-04-29T18:39:25.051Z,36.13
2019-04-29T18:41:54.789Z,35.77
2019-04-29T18:44:25.804Z,34.73
2019-04-29T18:46:57.230Z,33.43
2019-04-29T18:49:26.396Z,36.00
2019-04-29T18:51:57.895Z,42.17
2019-04-29T18:54:27.060Z,41.20
2019-04-29T18:56:56.843Z,48.07
2019-04-29T18:59:33.261Z,45.60
2019-04-29T19:02:00.951Z,49.93
2019-04-29T19:04:31.633Z,49.77
2019-04-29T19:07:02.418Z,50.77
2019-04-29T19:09:35.957Z,51.27
2019-04-29T19:12:05.617Z,51.63
2019-04-29T19:14:35.406Z,50.87
2019-04-29T19:17:05.152Z,50.37
2019-04-29T19:19:35.807Z,54.83
2019-04-29T19:22:09.417Z,53.73
2019-04-29T19:24:38.159Z,58.27
2019-04-29T19:27:09.952Z,50.27
2019-04-29T19:29:43.176Z,50.77
2019-04-29T19:32:10.496Z,47.83
2019-04-29T19:34:43.313Z,48.40
2019-04-29T19:37:11.454Z,50.93
2019-04-29T19:39:41.018Z,47.27
2019-04-29T19:42:10.552Z,45.90
2019-04-29T19:44:39.962Z,49.93
2019-04-29T19:47:10.985Z,48.57
2019-04-29T19:49:44.637Z,47.57
2019-04-29T19:52:11.932Z,44.27
2019-04-29T19:54:42.980Z,47.47
2019-04-29T19:57:12.358Z,47.97
2019-04-29T19:59:50.413Z,50.30
2019-04-29T20:02:13.446Z,48.30
2019-04-29T20:04:44.926Z,50.67
2019-04-29T20:07:17.445Z,57.57
2019-04-29T20:09:48.296Z,53.13
2019-04-29T20:12:17.956Z,45.93
2019-04-29T20:14:48.087Z,48.60
2019-04-29T20:17:19.818Z,44.57
2019-04-29T20:20:00.653Z,45.43
2019-04-29T20:22:30.681Z,44.33
2019-04-29T20:25:00.222Z,43.93
2019-04-29T20:27:32.362Z,48.43
2019-04-29T20:30:01.655Z,49.33
2019-04-29T20:32:32.099Z,47.57
2019-04-29T20:35:06.910Z,44.40
2019-04-29T20:37:32.714Z,42.60
2019-04-29T20:40:02.534Z,46.63
2019-04-29T20:42:32.221Z,46.93
2019-04-29T20:45:01.845Z,49.23
2019-04-29T20:47:37.921Z,49.03
2019-04-29T20:50:04.043Z,52.60
2019-04-29T20:52:37.904Z,51.70
2019-04-29T20:55:09.322Z,56.23
2019-04-29T20:57:39.301Z,56.17
2019-04-29T21:00:09.722Z,59.70
2019-04-29T21:02:39.402Z,72.77
2019-04-29T21:05:19.890Z,90.27
2019-04-29T21:07:41.562Z,84.00
2019-04-29T21:10:11.411Z,79.17
2019-04-29T21:12:45.869Z,79.60
2019-04-29T21:15:32.421Z,75.97
2019-04-29T21:18:01.974Z,66.20
2019-04-29T21:20:31.523Z,64.33
2019-04-29T21:23:01.160Z,57.53
2019-04-29T21:25:30.865Z,56.77
2019-04-29T21:28:02.204Z,50.97
2019-04-29T21:30:35.471Z,47.33
2019-04-29T21:33:02.526Z,41.03
2019-04-29T21:35:49.540Z,40.67
2019-04-29T21:38:35.334Z,45.90
2019-04-29T21:41:06.529Z,40.10
2019-04-29T21:43:37.535Z,43.17
2019-04-29T21:46:09.048Z,44.90
2019-04-29T21:48:38.530Z,46.97
2019-04-29T21:51:11.131Z,45.70
2019-04-29T21:53:40.412Z,51.47
2019-04-29T21:56:09.932Z,44.67
2019-04-29T21:58:39.286Z,40.97
2019-04-29T22:01:08.785Z,39.47
2019-04-29T22:03:38.244Z,42.53
2019-04-29T22:06:07.691Z,39.93
2019-04-29T22:08:37.123Z,38.13
2019-04-29T22:11:07.004Z,45.77
2019-04-29T22:13:39.000Z,38.30
2019-04-29T22:16:11.428Z,38.30
2019-04-29T22:18:39.478Z,38.93
2019-04-29T22:21:10.239Z,40.27
2019-04-29T22:23:44.337Z,38.77
2019-04-29T22:26:10.702Z,37.37
2019-04-29T22:28:40.078Z,35.07
2019-04-29T22:31:09.358Z,33.33
2019-04-29T22:33:38.792Z,38.47
2019-04-29T22:36:10.270Z,38.97
2019-04-29T22:38:43.646Z,36.93
2019-04-29T22:41:20.230Z,33.97
2019-04-29T22:43:52.437Z,36.13
2019-04-29T22:46:21.986Z,33.90
2019-04-29T22:48:51.406Z,35.70
2019-04-29T22:51:20.821Z,34.97
2019-04-29T22:53:50.193Z,35.23
2019-04-29T22:56:19.557Z,35.03
2019-04-29T22:58:48.891Z,42.80
2019-04-29T23:01:18.272Z,40.17
2019-04-29T23:03:47.621Z,35.80
2019-04-29T23:06:17.156Z,35.83
2019-04-29T23:08:46.443Z,43.03
2019-04-29T23:11:15.808Z,35.70
2019-04-29T23:13:46.180Z,36.07
2019-04-29T23:16:16.208Z,33.43
2019-04-29T23:18:45.930Z,33.97
2019-04-29T23:21:37.477Z,35.47
2019-04-29T23:24:18.554Z,35.57
2019-04-29T23:26:47.920Z,36.33
2019-04-29T23:29:17.256Z,38.43
2019-04-29T23:31:46.666Z,36.80
2019-04-29T23:34:15.967Z,35.70
2019-04-29T23:36:48.884Z,37.73
2019-04-29T23:39:16.496Z,35.13
2019-04-29T23:41:45.808Z,34.57
2019-04-29T23:44:15.181Z,36.03
2019-04-29T23:46:47.369Z,34.77
2019-04-29T23:49:15.646Z,36.53
2019-04-29T23:51:46.460Z,36.30
2019-04-29T23:54:15.857Z,35.63
2019-04-29T23:56:49.811Z,34.67
2019-04-29T23:59:25.078Z,35.03
